Aksa, Russia
Current Conditions -  °F | °C
As of 9:30 AM on Tuesday 25 Nov 2014 (Local Time) from UIAA Reporting Station
Haze Haze  
Wind Chill: -19°   Ceiling: 10000
Heat Index: -19°   Visibility: 1.7mi
Dew Point: -22°   Wind: 0mph
Humidity: 78%   Direction: NA
Pressure: 29.5"   Gusts: NA
Location:  50.27°N, 113.27°E
Report Text: UIAA 250030Z 00000MPS 2800 BR OVC100 M19/M22 Q0999 TEMPO 2100BR FEW002 RMK QFE691 29CLRD70
Loading
Personal Weather Stations






























Interactive Weather Map New forecast layout! Learn more

10-Day Weather Forecast

Advertisements
Track Severe Weather on mobile